Time;durP1;ratioP1;P1;durP2;ratioP2;P2;SDS_P1;SDS_P2;PMS_P1;PMS_P2;Temp;Humidity;BMP_temperature;BMP_pressure;BME280_temperature;BME280_humidity;BME280_pressure;Samples;Min_cycle;Max_cycle;Signal;HPM_P1;HPM_P2
2024/02/16 00:01:41;;;;;;;3.20;2.35;;;17.50;93.70;;;;;;5012962;28;20112;-45
2024/02/16 00:04:07;;;;;;;3.80;2.20;;;17.60;93.80;;;;;;5012993;28;20110;-45
2024/02/16 00:06:33;;;;;;;4.30;2.40;;;17.60;93.80;;;;;;5012981;28;20049;-44
2024/02/16 00:09:00;;;;;;;2.90;2.03;;;17.50;94.10;;;;;;5012688;28;20486;-44
2024/02/16 00:11:26;;;;;;;3.30;2.20;;;17.50;93.80;;;;;;5012660;28;20036;-42
2024/02/16 00:13:52;;;;;;;3.17;2.05;;;17.50;93.80;;;;;;5013232;28;20026;-44
2024/02/16 00:16:17;;;;;;;3.78;2.28;;;17.50;93.80;;;;;;5012869;28;20026;-44
2024/02/16 00:18:43;;;;;;;2.85;2.17;;;17.50;93.80;;;;;;5012436;28;20563;-42
2024/02/16 00:21:09;;;;;;;2.80;1.90;;;17.50;93.80;;;;;;5012584;28;20100;-45
2024/02/16 00:23:34;;;;;;;3.10;2.10;;;17.50;93.80;;;;;;5012736;28;20101;-45
2024/02/16 00:26:06;;;;;;;3.83;2.65;;;17.50;93.80;;;;;;5012120;28;20038;-42
2024/02/16 00:28:32;;;;;;;3.13;2.22;;;17.50;93.80;;;;;;5012730;28;20380;-44
2024/02/16 00:30:58;;;;;;;3.83;2.42;;;17.50;93.80;;;;;;5012245;28;20059;-42
2024/02/16 00:33:23;;;;;;;3.30;2.10;;;17.50;93.80;;;;;;5012332;28;20026;-44
2024/02/16 00:35:49;;;;;;;2.95;2.05;;;17.50;93.80;;;;;;5012184;28;20177;-45
2024/02/16 00:38:15;;;;;;;2.17;1.80;;;17.50;93.80;;;;;;5012173;28;20507;-45
2024/02/16 00:40:44;;;;;;;3.63;2.30;;;17.50;93.80;;;;;;5011506;28;20500;-45
2024/02/16 00:43:10;;;;;;;2.60;1.85;;;17.50;93.80;;;;;;5012233;28;20484;-45
2024/02/16 00:45:36;;;;;;;3.47;2.35;;;17.50;93.80;;;;;;5011986;28;20164;-45
2024/02/16 00:48:03;;;;;;;3.58;2.10;;;17.50;93.80;;;;;;5012247;28;20345;-45
2024/02/16 00:50:29;;;;;;;2.83;2.05;;;17.50;93.80;;;;;;5012126;28;20557;-45
2024/02/16 00:52:54;;;;;;;2.88;2.08;;;17.50;93.80;;;;;;5011924;28;20033;-45
2024/02/16 00:55:20;;;;;;;2.50;2.00;;;17.50;93.80;;;;;;5011860;28;20591;-45
2024/02/16 00:57:45;;;;;;;3.17;2.10;;;17.50;93.80;;;;;;5011902;28;20061;-45
2024/02/16 01:00:12;;;;;;;3.85;2.20;;;17.50;93.80;;;;;;5011781;28;20383;-45
2024/02/16 01:02:38;;;;;;;3.40;2.20;;;17.50;93.80;;;;;;5011704;28;20022;-45
2024/02/16 01:05:04;;;;;;;3.08;1.90;;;17.50;93.80;;;;;;5011832;28;20032;-45
2024/02/16 01:07:31;;;;;;;3.00;2.20;;;17.50;93.80;;;;;;5010375;28;20025;-44
2024/02/16 01:09:57;;;;;;;2.85;1.88;;;17.50;93.90;;;;;;5011647;28;20030;-45
2024/02/16 01:12:22;;;;;;;2.80;1.80;;;17.50;93.90;;;;;;5011694;28;20025;-44
2024/02/16 01:14:48;;;;;;;2.70;2.00;;;17.50;93.90;;;;;;5011759;28;20014;-43
2024/02/16 01:17:14;;;;;;;2.45;1.90;;;17.50;93.90;;;;;;5012518;28;20018;-45
2024/02/16 01:19:40;;;;;;;3.15;1.98;;;17.50;93.90;;;;;;5011994;28;20034;-44
2024/02/16 01:22:05;;;;;;;2.70;1.90;;;17.50;93.90;;;;;;5012130;28;20102;-45
2024/02/16 01:24:31;;;;;;;3.28;1.65;;;17.40;93.90;;;;;;5011355;28;20038;-45
2024/02/16 01:26:58;;;;;;;2.88;1.73;;;17.50;94.30;;;;;;5011499;28;20058;-45
2024/02/16 01:29:23;;;;;;;2.53;1.80;;;17.40;93.90;;;;;;5011682;28;20030;-42
2024/02/16 01:31:49;;;;;;;2.72;1.70;;;17.40;93.90;;;;;;5011990;28;20022;-44
2024/02/16 01:34:15;;;;;;;2.42;1.85;;;17.40;93.90;;;;;;5011501;28;20484;-43
2024/02/16 01:36:40;;;;;;;4.03;1.95;;;17.40;93.90;;;;;;5011342;28;20480;-43
2024/02/16 01:39:06;;;;;;;2.35;1.60;;;17.40;93.90;;;;;;5011445;28;20034;-44
2024/02/16 01:41:33;;;;;;;3.20;2.10;;;17.40;94.00;;;;;;5011516;28;20026;-44
2024/02/16 01:43:58;;;;;;;2.63;1.80;;;17.40;94.00;;;;;;5011389;28;20033;-44
2024/02/16 01:46:26;;;;;;;3.22;2.03;;;17.40;94.00;;;;;;5011147;28;20030;-45
2024/02/16 01:48:52;;;;;;;2.38;1.67;;;17.40;94.00;;;;;;5011352;28;20491;-44
2024/02/16 01:51:18;;;;;;;2.28;1.60;;;17.40;94.00;;;;;;5011721;28;20026;-44
2024/02/16 01:53:44;;;;;;;3.35;2.00;;;17.40;94.00;;;;;;5014369;28;20072;-44
2024/02/16 01:56:10;;;;;;;2.60;1.50;;;17.40;94.00;;;;;;5015601;28;20040;-44
2024/02/16 01:58:36;;;;;;;2.05;1.40;;;17.40;94.00;;;;;;5015078;28;20489;-42
2024/02/16 02:01:02;;;;;;;2.83;1.70;;;17.40;94.00;;;;;;5014907;28;20014;-43
2024/02/16 02:03:28;;;;;;;2.55;1.63;;;17.40;94.00;;;;;;5015127;28;20480;-45
2024/02/16 02:05:56;;;;;;;2.72;1.70;;;17.40;94.00;;;;;;5014860;28;20034;-43
2024/02/16 02:08:21;;;;;;;2.50;1.60;;;17.40;94.00;;;;;;5014950;28;20018;-45
2024/02/16 02:10:47;;;;;;;2.20;1.52;;;17.40;94.00;;;;;;5014899;28;20144;-45
2024/02/16 02:13:12;;;;;;;2.15;1.70;;;17.40;94.00;;;;;;5014935;28;20044;-45
2024/02/16 02:15:38;;;;;;;2.30;1.50;;;17.40;94.00;;;;;;5014978;28;20497;-44
2024/02/16 02:18:04;;;;;;;2.42;1.70;;;17.40;94.00;;;;;;5014981;28;20108;-44
2024/02/16 02:20:29;;;;;;;2.22;1.45;;;17.40;94.00;;;;;;5015756;28;20026;-44
2024/02/16 02:22:55;;;;;;;2.30;1.80;;;17.40;94.30;;;;;;5015376;28;20022;-44
2024/02/16 02:25:21;;;;;;;1.80;1.60;;;17.40;94.00;;;;;;5015109;28;20072;-44
2024/02/16 02:27:47;;;;;;;1.75;1.35;;;17.40;94.00;;;;;;5014532;28;20499;-44
2024/02/16 02:30:12;;;;;;;2.10;1.40;;;17.40;94.00;;;;;;5015133;28;20030;-44
2024/02/16 02:32:38;;;;;;;2.42;1.70;;;17.40;94.00;;;;;;5015292;28;20033;-43
2024/02/16 02:35:05;;;;;;;2.45;1.85;;;17.40;94.00;;;;;;5015804;28;20024;-45
2024/02/16 02:37:31;;;;;;;2.50;1.30;;;17.40;94.00;;;;;;5015575;28;20034;-43
2024/02/16 02:39:56;;;;;;;2.47;1.45;;;17.30;94.00;;;;;;5015222;28;20030;-44
2024/02/16 02:42:22;;;;;;;2.40;1.48;;;17.30;94.00;;;;;;5015174;28;20420;-45
2024/02/16 02:44:50;;;;;;;1.88;1.50;;;17.30;94.00;;;;;;5014910;28;20034;-45
2024/02/16 02:47:19;;;;;;;2.10;1.48;;;17.30;94.00;;;;;;5014434;28;20041;-42
2024/02/16 02:49:45;;;;;;;1.90;1.38;;;17.30;94.00;;;;;;5014747;28;20018;-44
2024/02/16 02:52:10;;;;;;;1.77;1.30;;;17.30;94.00;;;;;;5014287;28;20026;-45
2024/02/16 02:54:36;;;;;;;1.70;1.30;;;17.30;94.00;;;;;;5014119;28;20053;-44
2024/02/16 02:57:02;;;;;;;2.70;1.73;;;17.30;94.20;;;;;;5014153;28;20048;-45
2024/02/16 02:59:28;;;;;;;1.95;1.23;;;17.30;94.00;;;;;;5013994;28;20072;-45
2024/02/16 03:01:54;;;;;;;1.98;1.65;;;17.30;94.00;;;;;;5014364;28;20022;-45
2024/02/16 03:04:20;;;;;;;2.45;1.50;;;17.30;94.00;;;;;;5013420;28;20480;-45
2024/02/16 03:06:46;;;;;;;2.05;1.75;;;17.30;94.10;;;;;;5014055;28;20392;-41
2024/02/16 03:09:12;;;;;;;2.20;1.60;;;17.30;94.10;;;;;;5013784;28;20032;-45
2024/02/16 03:11:38;;;;;;;1.85;1.27;;;17.30;94.10;;;;;;5013760;28;20472;-45
2024/02/16 03:14:05;;;;;;;2.03;1.60;;;17.30;94.10;;;;;;5013860;28;20049;-45
2024/02/16 03:16:31;;;;;;;1.92;1.38;;;17.30;94.10;;;;;;5013578;28;20073;-46
2024/02/16 03:18:57;;;;;;;2.05;1.40;;;17.20;94.10;;;;;;5013775;28;20037;-45
2024/02/16 03:21:23;;;;;;;2.17;1.45;;;17.30;94.10;;;;;;5013671;28;20046;-43
2024/02/16 03:23:48;;;;;;;2.17;1.52;;;17.30;94.10;;;;;;5013620;28;20075;-45
2024/02/16 03:26:18;;;;;;;2.00;1.45;;;17.30;94.10;;;;;;5013252;28;20022;-45
2024/02/16 03:28:48;;;;;;;3.08;1.73;;;17.30;94.10;;;;;;5013362;28;20033;-45
2024/02/16 03:31:18;;;;;;;1.98;1.45;;;17.30;94.10;;;;;;5013465;28;20043;-43
2024/02/16 03:33:43;;;;;;;1.95;1.50;;;17.30;94.10;;;;;;5013477;28;20404;-41
2024/02/16 03:36:10;;;;;;;1.95;1.33;;;17.30;94.10;;;;;;5013291;28;20022;-40
2024/02/16 03:38:35;;;;;;;2.42;1.20;;;17.30;94.10;;;;;;5013317;28;20026;-44
2024/02/16 03:41:01;;;;;;;2.85;1.45;;;17.30;94.10;;;;;;5013142;28;20041;-44
2024/02/16 03:43:26;;;;;;;1.88;1.35;;;17.30;94.10;;;;;;5013409;28;20131;-44
2024/02/16 03:45:52;;;;;;;1.92;1.30;;;17.30;94.10;;;;;;5013461;28;20030;-44
2024/02/16 03:48:18;;;;;;;2.35;1.48;;;17.20;94.10;;;;;;5013116;28;20026;-42
2024/02/16 03:50:43;;;;;;;1.73;1.30;;;17.30;94.10;;;;;;5013127;28;20113;-42
2024/02/16 03:53:11;;;;;;;2.00;1.30;;;17.30;94.40;;;;;;5012963;28;20369;-44
2024/02/16 03:55:37;;;;;;;2.08;1.48;;;17.30;94.10;;;;;;5012854;28;20387;-44
2024/02/16 03:58:03;;;;;;;2.22;1.60;;;17.30;94.10;;;;;;5013116;28;20030;-44
2024/02/16 04:00:29;;;;;;;1.77;1.55;;;17.30;94.10;;;;;;5013065;28;20395;-44
2024/02/16 04:02:55;;;;;;;2.15;1.40;;;17.20;94.10;;;;;;5012824;28;20072;-44
2024/02/16 04:05:20;;;;;;;1.58;1.33;;;17.30;94.10;;;;;;5012788;28;20022;-42
2024/02/16 04:07:46;;;;;;;1.90;1.20;;;17.30;94.10;;;;;;5012572;28;20028;-45
2024/02/16 04:10:11;;;;;;;1.60;1.15;;;17.30;94.10;;;;;;5012674;28;20030;-44
2024/02/16 04:12:37;;;;;;;1.73;1.30;;;17.20;94.10;;;;;;5012861;28;20026;-45
2024/02/16 04:15:04;;;;;;;1.60;1.15;;;17.20;94.10;;;;;;5011794;28;20057;-44
2024/02/16 04:17:30;;;;;;;2.15;1.45;;;17.20;94.10;;;;;;5012670;28;20072;-44
2024/02/16 04:19:55;;;;;;;2.00;1.38;;;17.20;94.10;;;;;;5012504;28;20030;-44
2024/02/16 04:22:21;;;;;;;1.85;1.40;;;17.20;94.10;;;;;;5012400;28;20022;-44
2024/02/16 04:24:47;;;;;;;1.50;1.30;;;17.20;94.10;;;;;;5012307;28;20403;-44
2024/02/16 04:27:12;;;;;;;1.55;1.23;;;17.20;94.10;;;;;;5012392;28;20616;-44
2024/02/16 04:29:38;;;;;;;1.80;1.20;;;17.20;94.50;;;;;;5012355;28;20026;-44
2024/02/16 04:32:04;;;;;;;2.25;1.45;;;17.20;94.50;;;;;;5012714;28;20029;-44
2024/02/16 04:34:29;;;;;;;1.88;1.10;;;17.20;94.20;;;;;;5012672;28;20070;-44
2024/02/16 04:36:55;;;;;;;1.63;1.30;;;17.20;94.20;;;;;;5012116;28;20164;-44
2024/02/16 04:39:21;;;;;;;1.50;1.17;;;17.20;94.20;;;;;;5012699;28;20030;-44
2024/02/16 04:41:46;;;;;;;2.05;1.25;;;17.20;94.20;;;;;;5012851;28;20046;-41
2024/02/16 04:44:12;;;;;;;1.33;0.93;;;17.20;94.20;;;;;;5012216;28;20037;-44
2024/02/16 04:46:38;;;;;;;1.98;1.45;;;17.20;94.20;;;;;;5012034;28;20546;-45
2024/02/16 04:49:03;;;;;;;1.65;1.30;;;17.20;94.20;;;;;;5011967;28;20061;-44
2024/02/16 04:51:29;;;;;;;2.40;1.30;;;17.20;94.10;;;;;;5011960;28;20025;-44
2024/02/16 04:53:55;;;;;;;2.13;1.38;;;17.20;94.10;;;;;;5012007;28;20065;-45
2024/02/16 04:56:20;;;;;;;1.80;1.30;;;17.20;94.10;;;;;;5012419;28;20484;-45
2024/02/16 04:58:46;;;;;;;2.00;1.50;;;17.20;94.10;;;;;;5011841;28;20029;-44
2024/02/16 05:01:13;;;;;;;2.53;1.02;;;17.20;94.10;;;;;;5012026;28;20025;-45
2024/02/16 05:03:41;;;;;;;2.00;1.20;;;17.20;94.10;;;;;;5011863;28;20029;-45
2024/02/16 05:06:06;;;;;;;2.05;1.15;;;17.20;94.10;;;;;;5011574;28;20109;-44
2024/02/16 05:08:32;;;;;;;2.45;1.35;;;17.20;94.10;;;;;;5011747;28;20109;-45
2024/02/16 05:10:57;;;;;;;2.10;1.17;;;17.20;94.10;;;;;;5011943;28;20500;-45
2024/02/16 05:13:24;;;;;;;2.13;1.33;;;17.20;94.10;;;;;;5011947;28;20109;-45
2024/02/16 05:15:49;;;;;;;1.17;1.02;;;17.20;94.10;;;;;;5011738;28;20110;-45
2024/02/16 05:18:17;;;;;;;1.63;1.20;;;17.20;94.10;;;;;;5011588;28;20097;-45
2024/02/16 05:20:43;;;;;;;1.80;1.20;;;17.20;94.10;;;;;;5011533;28;20515;-41
2024/02/16 05:23:08;;;;;;;1.65;1.25;;;17.20;94.20;;;;;;5011735;28;20091;-43
2024/02/16 05:25:34;;;;;;;2.00;1.10;;;17.20;94.10;;;;;;5011415;28;20033;-45
2024/02/16 05:28:01;;;;;;;2.13;1.25;;;17.20;94.10;;;;;;5011282;28;20022;-44
2024/02/16 05:30:26;;;;;;;1.25;1.10;;;17.20;94.10;;;;;;5011485;28;20018;-45
2024/02/16 05:32:53;;;;;;;1.63;1.30;;;17.20;94.20;;;;;;5011582;28;20487;-39
2024/02/16 05:35:18;;;;;;;2.10;1.23;;;17.20;94.20;;;;;;5011643;28;20025;-43
2024/02/16 05:37:49;;;;;;;1.50;1.08;;;17.10;94.10;;;;;;5011954;28;20572;-40
2024/02/16 05:40:30;;;;;;;2.00;1.50;;;17.10;94.10;;;;;;5011954;28;20164;-45
2024/02/16 05:42:59;;;;;;;1.70;1.20;;;17.10;94.10;;;;;;5011295;28;20026;-45
2024/02/16 05:45:26;;;;;;;1.38;1.10;;;17.20;94.20;;;;;;5012047;28;20029;-45
2024/02/16 05:47:52;;;;;;;1.80;1.30;;;17.10;94.20;;;;;;5011380;28;20398;-43
2024/02/16 05:50:20;;;;;;;1.50;1.17;;;17.10;94.20;;;;;;5012906;28;20026;-41
2024/02/16 05:52:46;;;;;;;1.77;1.23;;;17.10;94.20;;;;;;5011401;28;20152;-44
2024/02/16 05:55:13;;;;;;;1.83;1.40;;;17.10;94.20;;;;;;5012203;28;20116;-45
2024/02/16 05:57:39;;;;;;;1.58;1.20;;;17.10;94.20;;;;;;5011357;28;20025;-45
2024/02/16 06:00:06;;;;;;;1.60;1.08;;;17.10;94.20;;;;;;5011273;28;20021;-45
2024/02/16 06:02:32;;;;;;;1.83;1.20;;;17.10;94.20;;;;;;5011182;28;20018;-45
2024/02/16 06:05:02;;;;;;;2.15;1.20;;;17.10;94.20;;;;;;5011156;28;20030;-45
2024/02/16 06:07:28;;;;;;;2.03;1.20;;;17.20;94.20;;;;;;5011026;28;20029;-45
2024/02/16 06:09:57;;;;;;;2.10;1.25;;;17.10;94.20;;;;;;5011429;28;20115;-45
2024/02/16 06:12:23;;;;;;;1.50;1.08;;;17.10;94.20;;;;;;5011188;28;20024;-45
2024/02/16 06:14:49;;;;;;;1.65;1.25;;;17.20;94.20;;;;;;5011211;28;20018;-44
2024/02/16 06:17:16;;;;;;;2.05;1.30;;;17.10;94.20;;;;;;5011493;28;20026;-44
2024/02/16 06:19:42;;;;;;;1.80;1.30;;;17.10;94.20;;;;;;5011078;28;20058;-45
2024/02/16 06:22:10;;;;;;;1.30;1.10;;;17.10;94.20;;;;;;5010978;28;20061;-45
2024/02/16 06:24:36;;;;;;;1.90;1.50;;;17.10;94.20;;;;;;5010863;28;20036;-44
2024/02/16 06:27:03;;;;;;;1.42;1.20;;;17.10;94.20;;;;;;5011143;28;20064;-42
2024/02/16 06:29:30;;;;;;;2.13;1.05;;;17.10;94.20;;;;;;5011270;28;20049;-42
2024/02/16 06:31:56;;;;;;;1.92;1.15;;;17.10;94.20;;;;;;5010986;28;20472;-45
2024/02/16 06:34:21;;;;;;;1.55;1.10;;;17.10;94.20;;;;;;5010942;28;20026;-45
2024/02/16 06:36:47;;;;;;;1.60;1.13;;;17.10;94.20;;;;;;5010994;28;20346;-44
2024/02/16 06:39:16;;;;;;;1.83;1.20;;;17.10;94.20;;;;;;5012881;28;20570;-45
2024/02/16 06:41:43;;;;;;;1.65;1.27;;;17.10;94.20;;;;;;5014376;28;20022;-45
2024/02/16 06:44:09;;;;;;;1.67;1.30;;;17.10;94.20;;;;;;5014440;28;20022;-40
2024/02/16 06:46:35;;;;;;;1.73;1.20;;;17.10;94.20;;;;;;5014122;28;20026;-45
2024/02/16 06:49:00;;;;;;;1.88;1.15;;;17.10;94.20;;;;;;5014302;28;20034;-44
2024/02/16 06:51:28;;;;;;;1.60;0.98;;;17.10;94.20;;;;;;5014316;28;20030;-43
2024/02/16 06:53:54;;;;;;;1.45;1.00;;;17.10;94.20;;;;;;5014294;28;20081;-45
2024/02/16 06:56:20;;;;;;;2.28;1.48;;;17.00;94.20;;;;;;5014146;28;20030;-41
2024/02/16 06:58:46;;;;;;;1.70;1.23;;;17.00;94.50;;;;;;5014530;28;20022;-43
2024/02/16 07:01:15;;;;;;;1.85;1.30;;;17.10;94.30;;;;;;5013351;28;20392;-43
2024/02/16 07:03:43;;;;;;;1.50;1.10;;;17.10;94.30;;;;;;5014176;28;20112;-45
2024/02/16 07:06:10;;;;;;;1.73;1.13;;;17.10;94.30;;;;;;5014108;28;20029;-42
2024/02/16 07:08:42;;;;;;;1.60;1.23;;;17.00;94.30;;;;;;5014338;28;20030;-44
2024/02/16 07:11:08;;;;;;;1.90;1.40;;;17.10;94.30;;;;;;5014024;28;20030;-41
2024/02/16 07:13:34;;;;;;;1.83;1.30;;;17.00;94.30;;;;;;5013799;28;20029;-43
2024/02/16 07:16:00;;;;;;;2.55;1.40;;;17.00;94.30;;;;;;5013563;28;20053;-44
2024/02/16 07:18:26;;;;;;;1.55;1.20;;;17.10;94.40;;;;;;5014017;28;20078;-41
2024/02/16 07:20:52;;;;;;;1.48;1.05;;;17.10;94.30;;;;;;5013940;28;20459;-44
2024/02/16 07:23:17;;;;;;;1.60;1.20;;;17.10;94.30;;;;;;5013782;28;20435;-45
2024/02/16 07:25:43;;;;;;;2.25;1.20;;;17.10;94.30;;;;;;5013467;28;20077;-45
2024/02/16 07:28:09;;;;;;;2.00;1.40;;;17.00;94.30;;;;;;5013656;28;20347;-45
2024/02/16 07:30:38;;;;;;;1.35;1.13;;;17.10;94.30;;;;;;5013364;28;20361;-43
2024/02/16 07:33:04;;;;;;;1.52;1.10;;;17.10;94.30;;;;;;5013500;28;20387;-44
2024/02/16 07:35:30;;;;;;;1.38;1.08;;;17.10;94.30;;;;;;5013522;28;20024;-41
2024/02/16 07:37:56;;;;;;;1.50;1.02;;;17.10;94.30;;;;;;5013676;28;20029;-45
2024/02/16 07:40:22;;;;;;;1.20;1.00;;;17.10;94.30;;;;;;5013296;28;20022;-45
2024/02/16 07:42:47;;;;;;;1.52;1.20;;;17.10;94.30;;;;;;5013501;28;20029;-46
2024/02/16 07:45:13;;;;;;;1.80;1.30;;;17.10;94.30;;;;;;5013295;28;20054;-46
2024/02/16 07:47:41;;;;;;;1.95;1.40;;;17.10;94.30;;;;;;5013131;28;20026;-42
2024/02/16 07:50:07;;;;;;;2.55;1.35;;;17.10;94.30;;;;;;5013031;28;20116;-45
2024/02/16 07:52:33;;;;;;;1.27;1.05;;;17.10;94.30;;;;;;5013156;28;20029;-46
2024/02/16 07:54:59;;;;;;;1.52;1.13;;;17.10;94.20;;;;;;5013095;28;20018;-45
2024/02/16 07:57:24;;;;;;;1.70;1.40;;;17.20;94.30;;;;;;5013011;28;20400;-45
2024/02/16 07:59:50;;;;;;;2.35;1.40;;;17.20;94.20;;;;;;5012773;28;20037;-45
2024/02/16 08:02:17;;;;;;;1.75;1.30;;;17.20;94.20;;;;;;5013585;28;20476;-44
2024/02/16 08:04:46;;;;;;;1.52;1.20;;;17.30;94.20;;;;;;5012838;28;20034;-44
2024/02/16 08:07:12;;;;;;;1.20;1.02;;;17.30;94.20;;;;;;5012823;28;20029;-45
2024/02/16 08:09:37;;;;;;;1.70;1.20;;;17.30;94.20;;;;;;5012951;28;20048;-43
2024/02/16 08:12:06;;;;;;;1.88;1.25;;;17.30;94.10;;;;;;5012639;28;20096;-44
2024/02/16 08:14:35;;;;;;;1.70;1.10;;;17.40;94.10;;;;;;5012571;28;20042;-44
2024/02/16 08:17:00;;;;;;;1.33;1.10;;;17.40;94.10;;;;;;5012552;28;20033;-45
2024/02/16 08:19:35;;;;;;;1.17;1.08;;;17.40;94.00;;;;;;5012759;28;20030;-45
2024/02/16 08:22:05;;;;;;;1.23;0.82;;;17.50;94.00;;;;;;5012647;28;20113;-44
2024/02/16 08:24:34;;;;;;;1.90;1.23;;;17.50;94.00;;;;;;5012245;28;20030;-45
2024/02/16 08:27:00;;;;;;;1.58;1.40;;;17.60;93.90;;;;;;5012332;28;20053;-45
2024/02/16 08:29:26;;;;;;;1.52;1.23;;;17.60;93.90;;;;;;5012395;28;20034;-46
2024/02/16 08:31:52;;;;;;;1.63;1.00;;;17.70;93.90;;;;;;5013780;28;20060;-46
2024/02/16 08:34:18;;;;;;;1.70;1.10;;;17.70;93.80;;;;;;5012487;28;20113;-45
2024/02/16 08:36:45;;;;;;;1.50;1.10;;;17.70;93.70;;;;;;5013201;28;20105;-45
2024/02/16 08:39:11;;;;;;;1.63;1.10;;;17.80;93.70;;;;;;5012717;28;20510;-44
2024/02/16 08:41:37;;;;;;;1.25;1.00;;;17.80;93.60;;;;;;5012627;28;20045;-44
2024/02/16 08:44:04;;;;;;;1.52;0.90;;;17.90;93.60;;;;;;5015076;28;20030;-45
2024/02/16 08:46:30;;;;;;;1.63;1.10;;;17.90;93.60;;;;;;5012948;28;20030;-44
2024/02/16 08:48:56;;;;;;;2.00;1.30;;;18.00;93.60;;;;;;5010713;28;20067;-46
2024/02/16 08:51:22;;;;;;;1.58;1.20;;;18.00;93.50;;;;;;5012075;28;20096;-45
2024/02/16 08:53:47;;;;;;;1.92;0.98;;;18.10;93.50;;;;;;5001995;28;20485;-45
2024/02/16 08:56:13;;;;;;;2.05;1.50;;;18.20;93.40;;;;;;4992546;28;20038;-45
2024/02/16 08:58:38;;;;;;;1.40;1.00;;;18.20;93.30;;;;;;4992314;28;20412;-45
2024/02/16 09:01:05;;;;;;;1.27;0.98;;;18.30;93.30;;;;;;4991799;28;20022;-45
2024/02/16 09:03:36;;;;;;;0.90;0.68;;;18.30;93.20;;;;;;4992371;28;20077;-45
2024/02/16 09:06:03;;;;;;;1.13;0.90;;;18.40;93.20;;;;;;4992162;28;20033;-45
2024/02/16 09:08:32;;;;;;;2.10;1.23;;;18.40;93.10;;;;;;4992021;28;20018;-44
2024/02/16 09:10:59;;;;;;;2.15;1.30;;;18.40;93.00;;;;;;4992105;28;20020;-45
2024/02/16 09:13:25;;;;;;;1.70;1.30;;;18.50;93.00;;;;;;4992096;28;20476;-45
2024/02/16 09:15:51;;;;;;;1.77;1.25;;;18.50;92.90;;;;;;4992079;28;20113;-45
2024/02/16 09:18:17;;;;;;;1.98;1.33;;;18.60;92.80;;;;;;4991984;28;20023;-45
2024/02/16 09:20:43;;;;;;;2.08;1.40;;;18.60;92.80;;;;;;4992218;28;20088;-45
2024/02/16 09:23:10;;;;;;;2.40;1.33;;;18.70;92.80;;;;;;4992255;28;20022;-45
2024/02/16 09:25:35;;;;;;;2.67;1.30;;;18.70;92.70;;;;;;4991712;28;20026;-45
2024/02/16 09:28:01;;;;;;;2.25;1.40;;;18.80;92.70;;;;;;4992214;28;20037;-45
2024/02/16 09:30:27;;;;;;;2.33;1.38;;;18.80;92.60;;;;;;4991932;28;20022;-45
2024/02/16 09:32:53;;;;;;;4.10;1.30;;;18.80;92.40;;;;;;4991988;28;20084;-45
2024/02/16 09:35:19;;;;;;;3.20;1.17;;;18.90;92.40;;;;;;4992331;28;20022;-45
2024/02/16 09:37:45;;;;;;;2.30;1.20;;;18.90;92.40;;;;;;4991659;28;20222;-45
2024/02/16 09:40:13;;;;;;;3.00;1.42;;;18.90;92.30;;;;;;4991754;28;20465;-44
2024/02/16 09:42:39;;;;;;;3.05;1.60;;;19.00;92.30;;;;;;4990619;28;20023;-45
2024/02/16 09:45:07;;;;;;;2.60;1.58;;;19.00;92.20;;;;;;4991732;28;20472;-44
2024/02/16 09:47:34;;;;;;;2.85;1.23;;;19.00;92.20;;;;;;4991615;28;20414;-45
2024/02/16 09:50:01;;;;;;;1.73;1.17;;;19.00;92.20;;;;;;4991655;28;20101;-45
2024/02/16 09:52:27;;;;;;;2.38;1.20;;;19.10;92.20;;;;;;4991576;28;20101;-45
2024/02/16 09:54:52;;;;;;;2.40;1.40;;;19.10;92.20;;;;;;4991634;28;20094;-45
2024/02/16 09:57:18;;;;;;;2.28;1.40;;;19.10;92.20;;;;;;4991674;28;20034;-46
2024/02/16 09:59:45;;;;;;;2.10;1.25;;;19.10;92.10;;;;;;4991608;28;20037;-45
2024/02/16 10:02:11;;;;;;;1.55;1.15;;;19.10;92.10;;;;;;4991760;28;20022;-45
2024/02/16 10:04:36;;;;;;;2.25;1.42;;;19.10;92.10;;;;;;4991504;28;20077;-45
2024/02/16 10:07:03;;;;;;;1.73;1.15;;;19.10;92.10;;;;;;4990187;28;20072;-45
2024/02/16 10:09:29;;;;;;;1.65;1.10;;;19.10;92.10;;;;;;4991536;28;20497;-44
2024/02/16 10:11:55;;;;;;;1.73;1.20;;;19.10;92.10;;;;;;4991638;28;20065;-44
2024/02/16 10:14:20;;;;;;;2.08;1.20;;;19.10;92.10;;;;;;4993840;28;20105;-44
2024/02/16 10:17:03;;;;;;;1.35;1.08;;;19.10;92.10;;;;;;4995204;28;20081;-45
2024/02/16 10:19:39;;;;;;;2.00;1.35;;;19.00;92.10;;;;;;4995040;28;20031;-44
2024/02/16 10:22:08;;;;;;;2.00;1.20;;;19.00;92.10;;;;;;4995298;28;20112;-45
2024/02/16 10:24:34;;;;;;;3.30;1.23;;;19.00;92.10;;;;;;4995209;28;20030;-45
2024/02/16 10:27:00;;;;;;;1.60;1.10;;;19.00;92.10;;;;;;4995121;28;20487;-44
2024/02/16 10:29:27;;;;;;;2.78;1.40;;;19.00;92.10;;;;;;4993844;28;20034;-44
2024/02/16 10:31:52;;;;;;;2.78;1.25;;;18.90;92.10;;;;;;4995018;28;20057;-44
2024/02/16 10:34:22;;;;;;;1.40;1.02;;;18.90;92.10;;;;;;4995005;28;20389;-44
2024/02/16 10:36:48;;;;;;;2.83;1.35;;;18.90;92.10;;;;;;4994822;28;20460;-44
2024/02/16 10:39:14;;;;;;;2.00;1.30;;;18.90;92.10;;;;;;4994866;28;20535;-44
2024/02/16 10:41:45;;;;;;;2.67;1.20;;;18.90;92.10;;;;;;4994857;28;20488;-44
2024/02/16 10:44:11;;;;;;;2.05;1.08;;;18.90;92.10;;;;;;4993492;28;20039;-44
2024/02/16 10:46:37;;;;;;;2.67;1.20;;;18.90;92.10;;;;;;4994437;28;20035;-45
2024/02/16 10:49:05;;;;;;;3.40;1.30;;;18.90;92.20;;;;;;4994616;28;20030;-45
2024/02/16 10:51:42;;;;;;;3.58;1.48;;;18.80;92.20;;;;;;4994941;28;20064;-45
2024/02/16 10:54:08;;;;;;;3.60;1.70;;;18.90;92.20;;;;;;4994849;28;20033;-45
2024/02/16 10:56:39;;;;;;;3.17;1.60;;;18.90;92.20;;;;;;4994971;28;20218;-45
2024/02/16 10:59:09;;;;;;;2.40;1.40;;;19.00;92.10;;;;;;4994907;28;20440;-45
2024/02/16 11:01:43;;;;;;;2.75;1.40;;;19.00;92.10;;;;;;4994784;28;20022;-45
2024/02/16 11:04:15;;;;;;;4.80;1.15;;;19.00;92.10;;;;;;4994484;28;20468;-45
2024/02/16 11:06:56;;;;;;;4.05;1.52;;;19.10;92.10;;;;;;4994403;28;20030;-44
2024/02/16 11:09:35;;;;;;;3.30;1.65;;;19.10;92.10;;;;;;4994455;28;20027;-44
2024/02/16 11:12:03;;;;;;;2.78;1.50;;;19.00;92.00;;;;;;4994418;28;20022;-45
2024/02/16 11:14:44;;;;;;;2.95;1.35;;;19.10;92.00;;;;;;4992918;28;20029;-44
2024/02/16 11:17:13;;;;;;;2.25;1.48;;;19.10;92.00;;;;;;4994398;28;20385;-45
2024/02/16 11:19:43;;;;;;;2.22;1.40;;;19.10;92.00;;;;;;4994549;28;20412;-44
2024/02/16 11:22:11;;;;;;;3.78;1.50;;;19.10;92.10;;;;;;4994618;28;20018;-44
2024/02/16 11:24:37;;;;;;;2.08;1.35;;;19.00;92.00;;;;;;4993869;28;20030;-45
2024/02/16 11:27:07;;;;;;;2.60;1.40;;;19.00;92.10;;;;;;4994049;28;20030;-45
2024/02/16 11:29:34;;;;;;;2.17;1.30;;;19.00;92.10;;;;;;4994234;28;20253;-45
2024/02/16 11:32:02;;;;;;;1.65;1.15;;;19.00;92.10;;;;;;4994089;28;20098;-44
2024/02/16 11:34:28;;;;;;;1.88;1.20;;;19.00;92.10;;;;;;4993776;28;20110;-45
2024/02/16 11:36:59;;;;;;;3.33;1.23;;;19.00;92.10;;;;;;4994153;28;20113;-46
2024/02/16 11:39:32;;;;;;;1.67;1.35;;;19.10;92.20;;;;;;4993863;28;20408;-45
2024/02/16 11:42:11;;;;;;;2.13;1.48;;;19.10;92.20;;;;;;4993890;28;20026;-44
2024/02/16 11:44:42;;;;;;;1.83;1.30;;;19.10;92.20;;;;;;4993820;28;20363;-44
2024/02/16 11:47:17;;;;;;;3.53;1.70;;;19.10;92.20;;;;;;4993831;28;20022;-44
2024/02/16 11:49:42;;;;;;;2.78;1.08;;;19.10;92.20;;;;;;4993868;28;20029;-45
2024/02/16 11:52:08;;;;;;;1.80;1.25;;;19.10;92.20;;;;;;4994747;28;20030;-45
2024/02/16 11:54:35;;;;;;;1.63;1.25;;;19.20;92.20;;;;;;4994297;28;20110;-45
2024/02/16 11:57:00;;;;;;;1.90;1.17;;;19.20;92.10;;;;;;4993843;28;20546;-45
2024/02/16 11:59:26;;;;;;;2.42;1.40;;;19.20;92.10;;;;;;4993284;28;20038;-44
2024/02/16 12:01:59;;;;;;;3.95;1.38;;;19.30;92.10;;;;;;4993393;28;20030;-45
2024/02/16 12:04:25;;;;;;;2.10;1.20;;;19.30;92.10;;;;;;4993298;28;20042;-44
2024/02/16 12:06:58;;;;;;;1.63;1.10;;;19.30;92.10;;;;;;4993103;28;20034;-44
2024/02/16 12:09:24;;;;;;;2.05;1.23;;;19.30;92.00;;;;;;4993383;28;20496;-45
2024/02/16 12:11:52;;;;;;;1.98;1.10;;;19.30;92.00;;;;;;4993170;28;20412;-45
2024/02/16 12:14:18;;;;;;;2.15;1.20;;;19.30;92.30;;;;;;4993420;28;20018;-45
2024/02/16 12:16:48;;;;;;;2.00;1.25;;;19.40;92.00;;;;;;4992987;28;20027;-45
2024/02/16 12:19:14;;;;;;;3.53;1.42;;;19.40;91.90;;;;;;4991554;28;20527;-44
2024/02/16 12:21:40;;;;;;;2.58;1.00;;;19.40;91.90;;;;;;4993050;28;20026;-44
2024/02/16 12:24:06;;;;;;;1.15;1.00;;;19.40;91.90;;;;;;4992856;28;20022;-44
2024/02/16 12:26:31;;;;;;;3.72;1.30;;;19.40;91.90;;;;;;4996044;28;20571;-44
2024/02/16 12:28:57;;;;;;;4.90;1.60;;;19.40;92.00;;;;;;4992507;28;20023;-44
2024/02/16 12:31:23;;;;;;;4.57;1.60;;;19.40;92.20;;;;;;4992690;28;20030;-44
2024/02/16 12:33:49;;;;;;;4.43;1.45;;;19.50;92.20;;;;;;4992822;28;20106;-44
2024/02/16 12:36:15;;;;;;;3.38;1.48;;;19.60;92.10;;;;;;4991909;28;20050;-45
2024/02/16 12:38:40;;;;;;;4.03;1.60;;;19.70;92.00;;;;;;4992611;28;20568;-44
2024/02/16 12:41:08;;;;;;;5.15;1.20;;;19.80;91.90;;;;;;4992614;28;20362;-45
2024/02/16 12:43:34;;;;;;;2.55;1.23;;;19.80;91.90;;;;;;4992992;28;20049;-45
2024/02/16 12:46:03;;;;;;;4.43;1.30;;;19.80;91.80;;;;;;4992504;28;20023;-45